Time;durP1;ratioP1;P1;durP2;ratioP2;P2;SDS_P1;SDS_P2;PMS_P1;PMS_P2;Temp;Humidity;BMP_temperature;BMP_pressure;BME280_temperature;BME280_humidity;BME280_pressure;Samples;Min_cycle;Max_cycle;Signal;HPM_P1;HPM_P2
2022/10/17 00:00:31;;;;;;;;;;;;;;;;;;4967980;28;20407;-57
2022/10/17 00:02:56;;;;;;;;;;;;;;;;;;4962925;28;20291;-57
2022/10/17 00:05:22;;;;;;;;;;;;;;;;;;4963672;28;19937;-57
2022/10/17 00:07:47;;;;;;;;;;;;;;;;;;4968123;28;19937;-56
2022/10/17 00:10:12;;;;;;;;;;;;;;;;;;4967527;28;19918;-58
2022/10/17 00:12:38;;;;;;;;;;;;;;;;;;4962602;28;19977;-58
2022/10/17 00:15:04;;;;;;;;;;;;;;;;;;4969111;28;19962;-58
2022/10/17 00:17:30;;;;;;;;;;;;;;;;;;4964575;28;19925;-58
2022/10/17 00:19:56;;;;;;;;;;;;;;;;;;4965107;28;19922;-57
2022/10/17 00:22:22;;;;;;;;;;;;;;;;;;4965752;28;19999;-58
2022/10/17 00:24:47;;;;;;;;;;;;;;;;;;4968771;28;19961;-57
2022/10/17 00:27:12;;;;;;;;;;;;;;;;;;4962039;28;20384;-58
2022/10/17 00:29:38;;;;;;;;;;;;;;;;;;4966396;28;19913;-57
2022/10/17 00:32:03;;;;;;;;;;;;;;;;;;4966102;28;19926;-58
2022/10/17 00:34:29;;;;;;;;;;;;;;;;;;4961826;28;19922;-58
2022/10/17 00:36:55;;;;;;;;;;;;;;;;;;4973511;28;19942;-58
2022/10/17 00:39:20;;;;;;;;;;;;;;;;;;4963580;28;20004;-57
2022/10/17 00:41:45;;;;;;;;;;;;;;;;;;4965359;28;19924;-57
2022/10/17 00:44:28;;;;;;;;;;;;;;;;;;4965859;28;19930;-58
2022/10/17 00:46:55;;;;;;;;;;;;;;;;;;4964533;28;19968;-57
2022/10/17 00:49:22;;;;;;;;;;;;;;;;;;4959501;28;19918;-57
2022/10/17 00:51:59;;;;;;;;;;;;;;;;;;4965416;28;19922;-57
2022/10/17 00:54:26;;;;;;;;;;;;;;;;;;4969118;28;19922;-57
2022/10/17 00:56:51;;;;;;;;;;;;;;;;;;4958149;28;19924;-56
2022/10/17 00:59:18;;;;;;;;;;;;;;;;;;4966005;28;20379;-57
2022/10/17 01:01:47;;;;;;;;;;;;;;;;;;4967741;28;19950;-57
2022/10/17 01:04:13;;;;;;;;;;;;;;;;;;4960464;28;20544;-56
2022/10/17 01:06:38;;;;;;;;;;;;;;;;;;4960286;28;19919;-56
2022/10/17 01:09:03;;;;;;;;;;;;;;;;;;4962357;28;19922;-56
2022/10/17 01:11:35;;;;;;;;;;;;;;;;;;4963470;28;19930;-56
2022/10/17 01:14:17;;;;;;;;;;;;;;;;;;4965383;28;20028;-56
2022/10/17 01:17:01;;;;;;;;;;;;;;;;;;4965186;28;20376;-57
2022/10/17 01:19:41;;;;;;;;;;;;;;;;;;4958666;28;20009;-57
2022/10/17 01:22:06;;;;;;;;;;;;;;;;;;4960349;28;20379;-56
2022/10/17 01:24:39;;;;;;;;;;;;;;;;;;4967842;28;19924;-57
2022/10/17 01:27:10;;;;;;;;;;;;;;;;;;4966593;28;19944;-57
2022/10/17 01:29:41;;;;;;;;;;;;;;;;;;4960627;28;19918;-57
2022/10/17 01:32:15;;;;;;;;;;;;;;;;;;4966711;28;20384;-57
2022/10/17 01:34:58;;;;;;;;;;;;;;;;;;4964547;28;20450;-56
2022/10/17 01:37:47;;;;;;;;;;;;;;;;;;4963141;28;19918;-57
2022/10/17 01:40:24;;;;;;;;;;;;;;;;;;4971230;28;19987;-57
2022/10/17 01:43:03;;;;;;;;;;;;;;;;;;4965351;28;19924;-57
2022/10/17 01:45:36;;;;;;;;;;;;;;;;;;4968921;28;19914;-57
2022/10/17 01:48:04;;;;;;;;;;;;;;;;;;4963750;28;19923;-57
2022/10/17 01:50:39;;;;;;;;;;;;;;;;;;4966027;28;20398;-57
2022/10/17 01:53:09;;;;;;;;;;;;;;;;;;4965517;28;19935;-57
2022/10/17 01:55:35;;;;;;;;;;;;;;;;;;4967388;28;19914;-57
2022/10/17 01:58:06;;;;;;;;;;;;;;;;;;4969798;28;19944;-57
2022/10/17 02:00:33;;;;;;;;;;;;;;;;;;4971053;28;19926;-57
2022/10/17 02:03:00;;;;;;;;;;;;;;;;;;4967053;28;20269;-56
2022/10/17 02:05:28;;;;;;;;;;;;;;;;;;4968302;28;19925;-56
2022/10/17 02:07:53;;;;;;;;;;;;;;;;;;4967939;28;20018;-57
2022/10/17 02:10:24;;;;;;;;;;;;;;;;;;4970960;28;20009;-57
2022/10/17 02:12:54;;;;;;;;;;;;;;;;;;4962030;28;20360;-57
2022/10/17 02:15:22;;;;;;;;;;;;;;;;;;4966275;28;20423;-57
2022/10/17 02:17:50;;;;;;;;;;;;;;;;;;4969704;28;19914;-57
2022/10/17 02:20:18;;;;;;;;;;;;;;;;;;4969607;28;19922;-57
2022/10/17 02:22:52;;;;;;;;;;;;;;;;;;4969168;28;20294;-57
2022/10/17 02:25:18;;;;;;;;;;;;;;;;;;4967036;28;19918;-56
2022/10/17 02:27:49;;;;;;;;;;;;;;;;;;4970679;28;19918;-57
2022/10/17 02:30:22;;;;;;;;;;;;;;;;;;4963932;28;19922;-56
2022/10/17 02:33:08;;;;;;;;;;;;;;;;;;4970582;28;19922;-57
2022/10/17 02:35:35;;;;;;;;;;;;;;;;;;4967998;28;19917;-57
2022/10/17 02:38:02;;;;;;;;;;;;;;;;;;4971098;28;19914;-57
2022/10/17 02:40:28;;;;;;;;;;;;;;;;;;4969230;28;20338;-55
2022/10/17 02:42:54;;;;;;;;;;;;;;;;;;4964215;28;20321;-57
2022/10/17 02:45:21;;;;;;;;;;;;;;;;;;4963672;28;20291;-56
2022/10/17 02:47:47;;;;;;;;;;;;;;;;;;4965938;28;19922;-57
2022/10/17 02:50:12;;;;;;;;;;;;;;;;;;4967748;28;19925;-56
2022/10/17 02:52:51;;;;;;;;;;;;;;;;;;4967061;28;19918;-56
2022/10/17 02:55:22;;;;;;;;;;;;;;;;;;4965947;28;19918;-56
2022/10/17 02:57:53;;;;;;;;;;;;;;;;;;4966553;28;19923;-57
2022/10/17 03:00:19;;;;;;;;;;;;;;;;;;4963730;28;19926;-56
2022/10/17 03:02:46;;;;;;;;;;;;;;;;;;4967952;28;20003;-57
2022/10/17 03:05:13;;;;;;;;;;;;;;;;;;4965331;28;20447;-57
2022/10/17 03:07:38;;;;;;;;;;;;;;;;;;4969110;28;20311;-57
2022/10/17 03:10:04;;;;;;;;;;;;;;;;;;4970341;28;19929;-57
2022/10/17 03:12:29;;;;;;;;;;;;;;;;;;4965101;28;19929;-57
2022/10/17 03:14:55;;;;;;;;;;;;;;;;;;4966470;28;19926;-56
2022/10/17 03:17:20;;;;;;;;;;;;;;;;;;4970276;28;20213;-57
2022/10/17 03:19:45;;;;;;;;;;;;;;;;;;4967515;28;19971;-57
2022/10/17 03:22:11;;;;;;;;;;;;;;;;;;4969587;28;19922;-57
2022/10/17 03:24:36;;;;;;;;;;;;;;;;;;4963765;28;19977;-57
2022/10/17 03:27:01;;;;;;;;;;;;;;;;;;4965728;28;20127;-57
2022/10/17 03:29:26;;;;;;;;;;;;;;;;;;4970050;28;19964;-57
2022/10/17 03:31:52;;;;;;;;;;;;;;;;;;4960913;28;19968;-57
2022/10/17 03:34:17;;;;;;;;;;;;;;;;;;4954569;28;20028;-57
2022/10/17 03:36:43;;;;;;;;;;;;;;;;;;4975561;28;19937;-57
2022/10/17 03:39:08;;;;;;;;;;;;;;;;;;4960395;28;19929;-57
2022/10/17 03:41:34;;;;;;;;;;;;;;;;;;4963445;28;20331;-57
2022/10/17 03:43:59;;;;;;;;;;;;;;;;;;4962621;28;19960;-57
2022/10/17 03:46:24;;;;;;;;;;;;;;;;;;4960612;28;19919;-57
2022/10/17 03:48:50;;;;;;;;;;;;;;;;;;4955677;28;19961;-56
2022/10/17 03:51:15;;;;;;;;;;;;;;;;;;4969272;28;19919;-57
2022/10/17 03:53:40;;;;;;;;;;;;;;;;;;4963391;28;19922;-57
2022/10/17 03:56:13;;;;;;;;;;;;;;;;;;4965708;28;19918;-57
2022/10/17 03:58:39;;;;;;;;;;;;;;;;;;4966129;28;19975;-57
2022/10/17 04:01:05;;;;;;;;;;;;;;;;;;4969700;28;19922;-57
2022/10/17 04:03:30;;;;;;;;;;;;;;;;;;4960701;28;19919;-56
2022/10/17 04:05:59;;;;;;;;;;;;;;;;;;4958675;28;19964;-57
2022/10/17 04:08:25;;;;;;;;;;;;;;;;;;4965760;28;20338;-57
2022/10/17 04:10:50;;;;;;;;;;;;;;;;;;4964301;28;19918;-57
2022/10/17 04:13:16;;;;;;;;;;;;;;;;;;4963535;28;19930;-57
2022/10/17 04:15:41;;;;;;;;;;;;;;;;;;4966882;28;19918;-57
2022/10/17 04:18:06;;;;;;;;;;;;;;;;;;4966153;28;19964;-57
2022/10/17 04:20:33;;;;;;;;;;;;;;;;;;4964654;28;19919;-56
2022/10/17 04:22:58;;;;;;;;;;;;;;;;;;4964377;28;20295;-57
2022/10/17 04:25:23;;;;;;;;;;;;;;;;;;4958839;28;19941;-57
2022/10/17 04:27:49;;;;;;;;;;;;;;;;;;4963303;28;19966;-57
2022/10/17 04:30:14;;;;;;;;;;;;;;;;;;4963297;28;19929;-57
2022/10/17 04:32:40;;;;;;;;;;;;;;;;;;4964857;28;20349;-58
2022/10/17 04:35:05;;;;;;;;;;;;;;;;;;4965085;28;20308;-57
2022/10/17 04:37:30;;;;;;;;;;;;;;;;;;4964764;28;19914;-57
2022/10/17 04:39:56;;;;;;;;;;;;;;;;;;4965718;28;19918;-57
2022/10/17 04:42:21;;;;;;;;;;;;;;;;;;4965049;28;19922;-57
2022/10/17 04:44:46;;;;;;;;;;;;;;;;;;4959206;28;19925;-57
2022/10/17 04:47:11;;;;;;;;;;;;;;;;;;4967671;28;19958;-57
2022/10/17 04:49:37;;;;;;;;;;;;;;;;;;4962697;28;19918;-57
2022/10/17 04:52:02;;;;;;;;;;;;;;;;;;4962215;28;19922;-56
2022/10/17 04:54:28;;;;;;;;;;;;;;;;;;4958950;28;19918;-58
2022/10/17 04:56:53;;;;;;;;;;;;;;;;;;4964448;28;19972;-58
2022/10/17 04:59:18;;;;;;;;;;;;;;;;;;4967563;28;19914;-57
2022/10/17 05:01:44;;;;;;;;;;;;;;;;;;4961575;28;20372;-58
2022/10/17 05:04:09;;;;;;;;;;;;;;;;;;4963230;28;19922;-59
2022/10/17 05:06:36;;;;;;;;;;;;;;;;;;4958233;28;19929;-59
2022/10/17 05:09:02;;;;;;;;;;;;;;;;;;4965820;28;19918;-59
2022/10/17 05:11:28;;;;;;;;;;;;;;;;;;4960132;28;19922;-59
2022/10/17 05:13:54;;;;;;;;;;;;;;;;;;4966352;28;20368;-59
2022/10/17 05:16:20;;;;;;;;;;;;;;;;;;4961086;28;19961;-54
2022/10/17 05:18:49;;;;;;;;;;;;;;;;;;4965834;28;20403;-58
2022/10/17 05:21:15;;;;;;;;;;;;;;;;;;4968329;28;20021;-58
2022/10/17 05:23:40;;;;;;;;;;;;;;;;;;4953511;28;20060;-59
2022/10/17 05:26:05;;;;;;;;;;;;;;;;;;4957930;28;19966;-58
2022/10/17 05:28:31;;;;;;;;;;;;;;;;;;4960919;28;19964;-59
2022/10/17 05:30:56;;;;;;;;;;;;;;;;;;4962128;28;19918;-59
2022/10/17 05:33:22;;;;;;;;;;;;;;;;;;4965700;28;19930;-58
2022/10/17 05:35:47;;;;;;;;;;;;;;;;;;4958325;28;20403;-58
2022/10/17 05:38:12;;;;;;;;;;;;;;;;;;4961607;28;19920;-59
2022/10/17 05:40:38;;;;;;;;;;;;;;;;;;4952483;28;19926;-59
2022/10/17 05:43:03;;;;;;;;;;;;;;;;;;4964998;28;19915;-59
2022/10/17 05:45:29;;;;;;;;;;;;;;;;;;4965399;28;19919;-59
2022/10/17 05:47:54;;;;;;;;;;;;;;;;;;4967082;28;20316;-58
2022/10/17 05:50:20;;;;;;;;;;;;;;;;;;4965332;28;19950;-59
2022/10/17 05:52:46;;;;;;;;;;;;;;;;;;4966848;28;19923;-58
2022/10/17 05:55:11;;;;;;;;;;;;;;;;;;4967582;28;19960;-59
2022/10/17 05:57:36;;;;;;;;;;;;;;;;;;4967268;28;19937;-58
2022/10/17 06:00:02;;;;;;;;;;;;;;;;;;4963397;28;19998;-59
2022/10/17 06:02:28;;;;;;;;;;;;;;;;;;4967119;28;20013;-59
2022/10/17 06:04:53;;;;;;;;;;;;;;;;;;4967420;28;20284;-58
2022/10/17 06:07:19;;;;;;;;;;;;;;;;;;4966076;28;20298;-59
2022/10/17 06:09:44;;;;;;;;;;;;;;;;;;4967616;28;19918;-58
2022/10/17 06:12:09;;;;;;;;;;;;;;;;;;4966983;28;19918;-58
2022/10/17 06:14:34;;;;;;;;;;;;;;;;;;4967938;28;19921;-58
2022/10/17 06:17:00;;;;;;;;;;;;;;;;;;4967109;28;19959;-58
2022/10/17 06:19:25;;;;;;;;;;;;;;;;;;4969250;28;20299;-58
2022/10/17 06:21:50;;;;;;;;;;;;;;;;;;4962061;28;19919;-58
2022/10/17 06:24:16;;;;;;;;;;;;;;;;;;4970773;28;20403;-59
2022/10/17 06:26:41;;;;;;;;;;;;;;;;;;4970571;28;19922;-59
2022/10/17 06:29:06;;;;;;;;;;;;;;;;;;4970729;28;19949;-57
2022/10/17 06:31:32;;;;;;;;;;;;;;;;;;4970333;28;20298;-57
2022/10/17 06:33:57;;;;;;;;;;;;;;;;;;4970775;28;19914;-58
2022/10/17 06:36:22;;;;;;;;;;;;;;;;;;4968621;28;20376;-58
2022/10/17 06:38:47;;;;;;;;;;;;;;;;;;4970468;28;19925;-58
2022/10/17 06:41:14;;;;;;;;;;;;;;;;;;4970697;28;19969;-57
2022/10/17 06:43:39;;;;;;;;;;;;;;;;;;4970086;28;20238;-58
2022/10/17 06:46:05;;;;;;;;;;;;;;;;;;4969821;28;20025;-58
2022/10/17 06:48:31;;;;;;;;;;;;;;;;;;4962388;28;20297;-58
2022/10/17 06:50:59;;;;;;;;;;;;;;;;;;4967989;28;19914;-58
2022/10/17 06:53:28;;;;;;;;;;;;;;;;;;4960681;28;20288;-58
2022/10/17 06:55:54;;;;;;;;;;;;;;;;;;4961588;28;20380;-58
2022/10/17 06:58:19;;;;;;;;;;;;;;;;;;4963509;28;19914;-59
2022/10/17 07:00:45;;;;;;;;;;;;;;;;;;4959522;28;19944;-58
2022/10/17 07:03:10;;;;;;;;;;;;;;;;;;4965672;28;19918;-59
2022/10/17 07:05:36;;;;;;;;;;;;;;;;;;4966658;28;19957;-59
2022/10/17 07:08:03;;;;;;;;;;;;;;;;;;4970420;28;19914;-58
2022/10/17 07:10:28;;;;;;;;;;;;;;;;;;4967109;28;19980;-59
2022/10/17 07:12:53;;;;;;;;;;;;;;;;;;4969041;28;19973;-59
2022/10/17 07:15:19;;;;;;;;;;;;;;;;;;4968025;28;19914;-59
2022/10/17 07:17:47;;;;;;;;;;;;;;;;;;4966476;28;19936;-59
2022/10/17 07:20:12;;;;;;;;;;;;;;;;;;4960691;28;19919;-59
2022/10/17 07:22:37;;;;;;;;;;;;;;;;;;4966108;28;20009;-59
2022/10/17 07:25:03;;;;;;;;;;;;;;;;;;4969136;28;19979;-59
2022/10/17 07:27:28;;;;;;;;;;;;;;;;;;4960116;28;19966;-59
2022/10/17 07:29:53;;;;;;;;;;;;;;;;;;4965789;28;20343;-59
2022/10/17 07:32:19;;;;;;;;;;;;;;;;;;4958702;28;19922;-59
2022/10/17 07:34:44;;;;;;;;;;;;;;;;;;4954583;28;20308;-59
2022/10/17 07:37:10;;;;;;;;;;;;;;;;;;4960524;28;19914;-59
2022/10/17 07:39:35;;;;;;;;;;;;;;;;;;4969792;28;19914;-59
2022/10/17 07:42:01;;;;;;;;;;;;;;;;;;4964332;28;19921;-59
2022/10/17 07:44:26;;;;;;;;;;;;;;;;;;4969770;28;20410;-59
2022/10/17 07:46:51;;;;;;;;;;;;;;;;;;4959163;28;20021;-59
2022/10/17 07:49:17;;;;;;;;;;;;;;;;;;4958678;28;19918;-59
2022/10/17 07:51:42;;;;;;;;;;;;;;;;;;4955844;28;19923;-59
2022/10/17 07:54:07;;;;;;;;;;;;;;;;;;4958803;28;19973;-59
2022/10/17 07:56:33;;;;;;;;;;;;;;;;;;4959161;28;20296;-59
2022/10/17 07:58:58;;;;;;;;;;;;;;;;;;4967408;28;20007;-59
2022/10/17 08:01:24;;;;;;;;;;;;;;;;;;4962844;28;19941;-59
2022/10/17 08:03:50;;;;;;;;;;;;;;;;;;4961298;28;19929;-59
2022/10/17 08:06:15;;;;;;;;;;;;;;;;;;4963819;28;19918;-59
2022/10/17 08:08:41;;;;;;;;;;;;;;;;;;4968465;28;19920;-59
2022/10/17 08:11:07;;;;;;;;;;;;;;;;;;4959485;28;20009;-59
2022/10/17 08:13:33;;;;;;;;;;;;;;;;;;4962861;28;19918;-59
2022/10/17 08:15:59;;;;;;;;;;;;;;;;;;4966365;28;20413;-59
2022/10/17 08:18:24;;;;;;;;;;;;;;;;;;4959094;28;19975;-59
2022/10/17 08:20:50;;;;;;;;;;;;;;;;;;4963360;28;19918;-59
2022/10/17 08:23:15;;;;;;;;;;;;;;;;;;4966150;28;20009;-59
2022/10/17 08:25:40;;;;;;;;;;;;;;;;;;4964434;28;19987;-59
2022/10/17 08:28:06;;;;;;;;;;;;;;;;;;4956683;28;19926;-59
2022/10/17 08:30:31;;;;;;;;;;;;;;;;;;4963671;28;19925;-59
2022/10/17 08:32:56;;;;;;;;;;;;;;;;;;4954810;28;19929;-59
2022/10/17 08:35:22;;;;;;;;;;;;;;;;;;4959190;28;19914;-59
2022/10/17 08:37:48;;;;;;;;;;;;;;;;;;4963135;28;20012;-59
2022/10/17 08:40:19;;;;;;;;;;;;;;;;;;4963275;28;19918;-59
2022/10/17 08:42:50;;;;;;;;;;;;;;;;;;4961447;28;19929;-59
2022/10/17 08:45:25;;;;;;;;;;;;;;;;;;4958601;28;19923;-59
2022/10/17 08:48:00;;;;;;;;;;;;;;;;;;4958235;28;19940;-59
2022/10/17 08:50:28;;;;;;;;;;;;;;;;;;4961308;28;19922;-59
2022/10/17 08:52:56;;;;;;;;;;;;;;;;;;4962945;28;20063;-59
2022/10/17 08:55:22;;;;;;;;;;;;;;;;;;4965842;28;19922;-59
2022/10/17 08:57:47;;;;;;;;;;;;;;;;;;4968422;28;20403;-59
2022/10/17 09:00:17;;;;;;;;;;;;;;;;;;4967789;28;20445;-59
2022/10/17 09:03:01;;;;;;;;;;;;;;;;;;4961826;28;19923;-59
2022/10/17 09:05:33;;;;;;;;;;;;;;;;;;4965414;28;20012;-59
2022/10/17 09:08:08;;;;;;;;;;;;;;;;;;4959899;28;19922;-59
2022/10/17 09:10:40;;;;;;;;;;;;;;;;;;4960029;28;19919;-59
2022/10/17 09:13:23;;;;;;;;;;;;;;;;;;4956660;28;19957;-59
2022/10/17 09:16:01;;;;;;;;;;;;;;;;;;4965745;28;20413;-59
2022/10/17 09:18:30;;;;;;;;;;;;;;;;;;4957063;28;19919;-59
2022/10/17 09:21:16;;;;;;;;;;;;;;;;;;4964428;28;20418;-60
2022/10/17 09:23:44;;;;;;;;;;;;;;;;;;4958743;28;19997;-59
2022/10/17 09:26:10;;;;;;;;;;;;;;;;;;4959024;28;20377;-59
2022/10/17 09:28:36;;;;;;;;;;;;;;;;;;4956155;28;19930;-59
2022/10/17 09:31:15;;;;;;;;;;;;;;;;;;4963993;28;19922;-60
2022/10/17 09:33:42;;;;;;;;;;;;;;;;;;4961635;28;20366;-59
2022/10/17 09:36:18;;;;;;;;;;;;;;;;;;4958761;28;19950;-60
2022/10/17 09:38:46;;;;;;;;;;;;;;;;;;4961228;28;19925;-59
2022/10/17 09:41:37;;;;;;;;;;;;;;;;;;4962017;28;19925;-59
2022/10/17 09:44:22;;;;;;;;;;;;;;;;;;4960039;28;20462;-60
2022/10/17 09:46:55;;;;;;;;;;;;;;;;;;4962198;28;20007;-60
2022/10/17 09:49:30;;;;;;;;;;;;;;;;;;4958148;28;19943;-59
2022/10/17 09:51:56;;;;;;;;;;;;;;;;;;4960196;28;20032;-59
2022/10/17 09:54:24;;;;;;;;;;;;;;;;;;4963258;28;20366;-59
2022/10/17 09:57:09;;;;;;;;;;;;;;;;;;4962878;28;19918;-60
2022/10/17 09:59:36;;;;;;;;;;;;;;;;;;4968201;28;19920;-60
2022/10/17 10:02:13;;;;;;;;;;;;;;;;;;4968688;28;20003;-60
2022/10/17 10:04:54;;;;;;;;;;;;;;;;;;4962593;28;19922;-59
2022/10/17 10:07:20;;;;;;;;;;;;;;;;;;4959553;28;19918;-59
2022/10/17 10:09:49;;;;;;;;;;;;;;;;;;4964412;28;20400;-59
2022/10/17 10:12:20;;;;;;;;;;;;;;;;;;4965890;28;20441;-59
2022/10/17 10:14:45;;;;;;;;;;;;;;;;;;4965293;28;19930;-60
2022/10/17 10:17:27;;;;;;;;;;;;;;;;;;4969057;28;19914;-60
2022/10/17 10:19:53;;;;;;;;;;;;;;;;;;4966411;28;20391;-60
2022/10/17 10:22:19;;;;;;;;;;;;;;;;;;4965634;28;19928;-59
2022/10/17 10:24:44;;;;;;;;;;;;;;;;;;4969381;28;19914;-59
2022/10/17 10:27:14;;;;;;;;;;;;;;;;;;4961455;28;20480;-58
2022/10/17 10:29:49;;;;;;;;;;;;;;;;;;4964251;28;19955;-58
2022/10/17 10:32:24;;;;;;;;;;;;;;;;;;4968051;28;19922;-58
2022/10/17 10:34:49;;;;;;;;;;;;;;;;;;4958729;28;19922;-59
2022/10/17 10:37:17;;;;;;;;;;;;;;;;;;4964735;28;20321;-59
2022/10/17 10:40:02;;;;;;;;;;;;;;;;;;4958453;28;19931;-59
2022/10/17 10:42:35;;;;;;;;;;;;;;;;;;4954884;28;19980;-59
2022/10/17 10:45:03;;;;;;;;;;;;;;;;;;4964553;28;19925;-59
2022/10/17 10:47:29;;;;;;;;;;;;;;;;;;4966623;28;19980;-59
2022/10/17 10:50:14;;;;;;;;;;;;;;;;;;4967892;28;20419;-59
2022/10/17 10:52:54;;;;;;;;;;;;;;;;;;4960879;28;19922;-59
2022/10/17 10:55:28;;;;;;;;;;;;;;;;;;4959453;28;19918;-59
2022/10/17 10:58:09;;;;;;;;;;;;;;;;;;4966570;28;19979;-60
2022/10/17 11:00:36;;;;;;;;;;;;;;;;;;4959302;28;19929;-60
2022/10/17 11:03:02;;;;;;;;;;;;;;;;;;4958303;28;19926;-59
2022/10/17 11:05:27;;;;;;;;;;;;;;;;;;4962504;28;19965;-60
2022/10/17 11:07:57;;;;;;;;;;;;;;;;;;4966013;28;19988;-59
2022/10/17 11:10:36;;;;;;;;;;;;;;;;;;4969079;28;19990;-60
2022/10/17 11:13:14;;;;;;;;;;;;;;;;;;4968408;28;20355;-60
2022/10/17 11:15:39;;;;;;;;;;;;;;;;;;4960742;28;19918;-60
2022/10/17 11:18:24;;;;;;;;;;;;;;;;;;4961333;28;19929;-60
2022/10/17 11:20:52;;;;;;;;;;;;;;;;;;4962416;28;19918;-60
2022/10/17 11:23:20;;;;;;;;;;;;;;;;;;4961530;28;19964;-60
2022/10/17 11:25:47;;;;;;;;;;;;;;;;;;4964321;28;20017;-60
2022/10/17 11:28:14;;;;;;;;;;;;;;;;;;4970085;28;19921;-60
2022/10/17 11:30:45;;;;;;;;;;;;;;;;;;4955626;28;19918;-60
2022/10/17 11:33:14;;;;;;;;;;;;;;;;;;4960129;28;20042;-61
2022/10/17 11:35:42;;;;;;;;;;;;;;;;;;4960737;28;19929;-60
2022/10/17 11:38:25;;;;;;;;;;;;;;;;;;4956700;28;20436;-61
2022/10/17 11:40:54;;;;;;;;;;;;;;;;;;4968609;28;19949;-61
2022/10/17 11:43:22;;;;;;;;;;;;;;;;;;4965031;28;19948;-61
2022/10/17 11:45:49;;;;;;;;;;;;;;;;;;4962848;28;20020;-60
2022/10/17 11:48:22;;;;;;;;;;;;;;;;;;4962631;28;20001;-61
2022/10/17 11:50:57;;;;;;;;;;;;;;;;;;4965622;28;19922;-61
2022/10/17 11:53:24;;;;;;;;;;;;;;;;;;4963382;28;19918;-61
2022/10/17 11:55:51;;;;;;;;;;;;;;;;;;4967904;28;19914;-61
2022/10/17 11:58:16;;;;;;;;;;;;;;;;;;4968276;28;20324;-61
2022/10/17 12:01:00;;;;;;;;;;;;;;;;;;4959510;28;19930;-61
2022/10/17 12:03:44;;;;;;;;;;;;;;;;;;4964501;28;19929;-60
2022/10/17 12:06:15;;;;;;;;;;;;;;;;;;4967475;28;19964;-61
2022/10/17 12:08:56;;;;;;;;;;;;;;;;;;4959240;28;20013;-60
2022/10/17 12:11:29;;;;;;;;;;;;;;;;;;4965194;28;21533;-61
2022/10/17 12:13:55;;;;;;;;;;;;;;;;;;4953627;28;20367;-61
2022/10/17 12:16:20;;;;;;;;;;;;;;;;;;4967364;28;19942;-60
2022/10/17 12:19:09;;;;;;;;;;;;;;;;;;4967693;28;19961;-60
2022/10/17 12:21:53;;;;;;;;;;;;;;;;;;4967721;28;20335;-59
2022/10/17 12:24:39;;;;;;;;;;;;;;;;;;4968724;28;20073;-59
2022/10/17 12:27:23;;;;;;;;;;;;;;;;;;4961449;28;19914;-59
2022/10/17 12:29:49;;;;;;;;;;;;;;;;;;4968913;28;19924;-59
2022/10/17 12:32:14;;;;;;;;;;;;;;;;;;4962336;28;20295;-59
2022/10/17 12:34:49;;;;;;;;;;;;;;;;;;4963536;28;19918;-59
2022/10/17 12:37:34;;;;;;;;;;;;;;;;;;4964843;28;19926;-59
2022/10/17 12:40:00;;;;;;;;;;;;;;;;;;4955904;28;20111;-59
2022/10/17 12:42:29;;;;;;;;;;;;;;;;;;4959405;28;19924;-59
2022/10/17 12:44:54;;;;;;;;;;;;;;;;;;4964161;28;20216;-60
2022/10/17 12:47:27;;;;;;;;;;;;;;;;;;4968696;28;20252;-60
2022/10/17 12:49:52;;;;;;;;;;;;;;;;;;4963701;28;19933;-61
2022/10/17 12:52:17;;;;;;;;;;;;;;;;;;4968267;28;19914;-61
2022/10/17 12:54:45;;;;;;;;;;;;;;;;;;4968755;28;20372;-60
2022/10/17 12:57:19;;;;;;;;;;;;;;;;;;4968513;28;19914;-60
2022/10/17 12:59:45;;;;;;;;;;;;;;;;;;4970553;28;20124;-60
2022/10/17 13:02:15;;;;;;;;;;;;;;;;;;4961634;28;19918;-60
2022/10/17 13:04:40;;;;;;;;;;;;;;;;;;4967073;28;19972;-60
2022/10/17 13:07:14;;;;;;;;;;;;;;;;;;4966515;28;19918;-60
2022/10/17 13:09:42;;;;;;;;;;;;;;;;;;4966319;28;19925;-60
2022/10/17 13:12:11;;;;;;;;;;;;;;;;;;4968005;28;19954;-60
2022/10/17 13:14:38;;;;;;;;;;;;;;;;;;4968418;28;19914;-60
2022/10/17 13:17:05;;;;;;;;;;;;;;;;;;4968061;28;19967;-60
2022/10/17 13:19:41;;;;;;;;;;;;;;;;;;4964849;28;19925;-60
2022/10/17 13:22:15;;;;;;;;;;;;;;;;;;4957665;28;20399;-60
2022/10/17 13:24:41;;;;;;;;;;;;;;;;;;4968245;28;19959;-60
2022/10/17 13:27:21;;;;;;;;;;;;;;;;;;4968082;28;20384;-60
2022/10/17 13:29:46;;;;;;;;;;;;;;;;;;4969987;28;20025;-60
2022/10/17 13:32:11;;;;;;;;;;;;;;;;;;4971226;28;19997;-60
2022/10/17 13:34:37;;;;;;;;;;;;;;;;;;4966164;28;20387;-60
2022/10/17 13:37:03;;;;;;;;;;;;;;;;;;4971591;28;19914;-59
2022/10/17 13:39:38;;;;;;;;;;;;;;;;;;4972247;28;19914;-60
2022/10/17 13:42:03;;;;;;;;;;;;;;;;;;4970916;28;19925;-60
2022/10/17 13:44:31;;;;;;;;;;;;;;;;;;4971832;28;20321;-59
2022/10/17 13:46:57;;;;;;;;;;;;;;;;;;4970838;28;19980;-59
2022/10/17 13:49:28;;;;;;;;;;;;;;;;;;4966654;28;19984;-59
2022/10/17 13:51:54;;;;;;;;;;;;;;;;;;4970868;28;19921;-59
2022/10/17 13:54:25;;;;;;;;;;;;;;;;;;4971395;28;19914;-59
2022/10/17 13:56:55;;;;;;;;;;;;;;;;;;4969890;28;20379;-59
2022/10/17 13:59:37;;;;;;;;;;;;;;;;;;4971553;28;19921;-59
2022/10/17 14:02:04;;;;;;;;;;;;;;;;;;4970904;28;19922;-60
2022/10/17 14:04:30;;;;;;;;;;;;;;;;;;4967915;28;19919;-59
2022/10/17 14:06:55;;;;;;;;;;;;;;;;;;4970189;28;19914;-60
2022/10/17 14:09:25;;;;;;;;;;;;;;;;;;4967954;28;20372;-60
2022/10/17 14:12:15;;;;;;;;;;;;;;;;;;4970412;28;19921;-59
2022/10/17 14:14:45;;;;;;;;;;;;;;;;;;4966667;28;19971;-60
2022/10/17 14:17:14;;;;;;;;;;;;;;;;;;4964037;28;20380;-59
2022/10/17 14:19:40;;;;;;;;;;;;;;;;;;4965227;28;19919;-59
2022/10/17 14:22:23;;;;;;;;;;;;;;;;;;4968802;28;20413;-60
2022/10/17 14:24:50;;;;;;;;;;;;;;;;;;4969628;28;20351;-60
2022/10/17 14:27:24;;;;;;;;;;;;;;;;;;4970072;28;19918;-60
2022/10/17 14:29:51;;;;;;;;;;;;;;;;;;4970050;28;20256;-60
2022/10/17 14:32:17;;;;;;;;;;;;;;;;;;4966662;28;20073;-60
2022/10/17 14:34:42;;;;;;;;;;;;;;;;;;4961993;28;20017;-60
2022/10/17 14:37:18;;;;;;;;;;;;;;;;;;4961409;28;19941;-60
2022/10/17 14:39:47;;;;;;;;;;;;;;;;;;4968645;28;19924;-60
2022/10/17 14:42:20;;;;;;;;;;;;;;;;;;4969344;28;20015;-59
2022/10/17 14:44:48;;;;;;;;;;;;;;;;;;4969593;28;19922;-61
2022/10/17 14:47:16;;;;;;;;;;;;;;;;;;4967952;28;19914;-60
2022/10/17 14:49:41;;;;;;;;;;;;;;;;;;4968679;28;20025;-60
2022/10/17 14:52:16;;;;;;;;;;;;;;;;;;4963715;28;20013;-60
2022/10/17 14:54:45;;;;;;;;;;;;;;;;;;4969355;28;20446;-58
2022/10/17 14:57:17;;;;;;;;;;;;;;;;;;4968080;28;20292;-63
2022/10/17 14:59:42;;;;;;;;;;;;;;;;;;4970393;28;19922;-57
2022/10/17 15:02:08;;;;;;;;;;;;;;;;;;4967320;28;19921;-57
2022/10/17 15:04:33;;;;;;;;;;;;;;;;;;4961793;28;20457;-59
2022/10/17 15:06:59;;;;;;;;;;;;;;;;;;4970037;28;19918;-59
2022/10/17 15:09:27;;;;;;;;;;;;;;;;;;4968264;28;19929;-60
2022/10/17 15:11:52;;;;;;;;;;;;;;;;;;4969604;28;20008;-60
2022/10/17 15:14:18;;;;;;;;;;;;;;;;;;4969804;28;20013;-59
2022/10/17 15:16:43;;;;;;;;;;;;;;;;;;4967720;28;19930;-59
2022/10/17 15:19:09;;;;;;;;;;;;;;;;;;4970448;28;19914;-59
2022/10/17 15:21:35;;;;;;;;;;;;;;;;;;4964051;28;20287;-59
2022/10/17 15:24:00;;;;;;;;;;;;;;;;;;4969459;28;19925;-59
2022/10/17 15:26:29;;;;;;;;;;;;;;;;;;4969577;28;20016;-59
2022/10/17 15:28:54;;;;;;;;;;;;;;;;;;4964116;28;19918;-58
2022/10/17 15:31:21;;;;;;;;;;;;;;;;;;4965775;28;19968;-58
2022/10/17 15:33:47;;;;;;;;;;;;;;;;;;4960649;28;19922;-61
2022/10/17 15:36:35;;;;;;;;;;;;;;;;;;4965277;28;19972;-59
2022/10/17 15:39:01;;;;;;;;;;;;;;;;;;4964765;28;19926;-59
2022/10/17 15:41:28;;;;;;;;;;;;;;;;;;4962248;28;19943;-59
2022/10/17 15:43:53;;;;;;;;;;;;;;;;;;4965254;28;19959;-59
2022/10/17 15:46:20;;;;;;;;;;;;;;;;;;4968518;28;19922;-59
2022/10/17 15:48:45;;;;;;;;;;;;;;;;;;4967668;28;19996;-59
2022/10/17 15:51:11;;;;;;;;;;;;;;;;;;4959294;28;20025;-59
2022/10/17 15:53:37;;;;;;;;;;;;;;;;;;4963328;28;19926;-59
2022/10/17 15:56:02;;;;;;;;;;;;;;;;;;4968243;28;19921;-59
2022/10/17 15:58:36;;;;;;;;;;;;;;;;;;4969743;28;20007;-58
2022/10/17 16:01:02;;;;;;;;;;;;;;;;;;4968639;28;19914;-59
2022/10/17 16:03:29;;;;;;;;;;;;;;;;;;4963607;28;20395;-59
2022/10/17 16:05:54;;;;;;;;;;;;;;;;;;4968468;28;19929;-59
2022/10/17 16:08:20;;;;;;;;;;;;;;;;;;4969576;28;19914;-59
2022/10/17 16:10:46;;;;;;;;;;;;;;;;;;4969342;28;20008;-59
2022/10/17 16:13:15;;;;;;;;;;;;;;;;;;4968603;28;19914;-59
2022/10/17 16:15:41;;;;;;;;;;;;;;;;;;4969086;28;19914;-59
2022/10/17 16:18:08;;;;;;;;;;;;;;;;;;4968116;28;20013;-59
2022/10/17 16:20:33;;;;;;;;;;;;;;;;;;4967928;28;20511;-59
2022/10/17 16:23:01;;;;;;;;;;;;;;;;;;4968618;28;19958;-59
2022/10/17 16:25:28;;;;;;;;;;;;;;;;;;4965081;28;19915;-58
2022/10/17 16:27:55;;;;;;;;;;;;;;;;;;4964259;28;20009;-58
2022/10/17 16:30:21;;;;;;;;;;;;;;;;;;4960672;28;19965;-58
2022/10/17 16:32:46;;;;;;;;;;;;;;;;;;4960178;28;20068;-58
2022/10/17 16:35:16;;;;;;;;;;;;;;;;;;4964735;28;19968;-59
2022/10/17 16:37:41;;;;;;;;;;;;;;;;;;4966675;28;19922;-59
2022/10/17 16:40:06;;;;;;;;;;;;;;;;;;4961304;28;20307;-59
2022/10/17 16:42:32;;;;;;;;;;;;;;;;;;4963930;28;19924;-58
2022/10/17 16:44:57;;;;;;;;;;;;;;;;;;4964191;28;19914;-58
2022/10/17 16:47:22;;;;;;;;;;;;;;;;;;4961488;28;19930;-58
2022/10/17 16:49:48;;;;;;;;;;;;;;;;;;4966407;28;19922;-58
2022/10/17 16:52:13;;;;;;;;;;;;;;;;;;4959646;28;19921;-58
2022/10/17 16:54:38;;;;;;;;;;;;;;;;;;4962234;28;20534;-58